KDMA/DMA METAR and TAF weather

Enter ICAO airport designator
Station Type Date Time Source
KDMA METAR 2020/01/20 12:58 UTC NOAA

KDMA 201258Z AUTO 13014KT 10SM FEW220 14/00 A3011 RMK AO2 SLP173 T01430002 FZRANO CHINO RWY12 $


Station Type Date Time Source
KDMA Decoded METAR 2020/01/20 12:58 UTC NOAA

Davis-Monthan Air Force Base, AZ, United States (KDMA) 32-10N 110-53W
Jan 20, 2020 - 07:58 AM EST / 2020.01.20 1258 UTC
Wind: from the SE (130 degrees) at 16 MPH (14 KT):0
Visibility: 10 mile(s):0
Sky conditions: mostly clear
Temperature: 57.7 F (14.3 C)
Dew Point: 32.4 F (0.2 C)
Relative Humidity: 38%
Pressure (altimeter): 30.11 in. Hg (1019 hPa)
ob: KDMA 201258Z AUTO 13014KT 10SM FEW220 14/00 A3011 RMK AO2 SLP173 T01430002 FZRANO CHINO RWY12
cycle: 13

Station Type Date Time Source
KDMA TAF 2020/01/20 09:12 UTC NOAA

TAF TAF
AMD KDMA 200945Z 2009/2112 14012KT 9999 SKC QNH3013INS
BECMG 2010/2012 12012KT 9999 FEW240 QNH3011INS
BECMG 2014/2015 10012G18KT 9999 SCT210 QNH3013INS
TEMPO 2017/2019 12020G25KT
BECMG 2018/2019 12012G18KT 9999 BKN180 QNH3015INS
BECMG 2021/2022 12010KT 9999 BKN180 QNH3012INS TX22/2020Z TN08/2013Z

Example: see airport list